Caribe Navigator — V2PW6 — position and weather

sailwx.info

Track history (hours):
 
Tides and Currents Weather Stations Pressure Air Temp Water Temp Dewpoint Dewpoint Depression Visibility Wind Speed Wind Dir Waves Ship Positions

Caribe Navigator

Last reported at 2016-May-26 20:33 UTC. Time now 2016-May-27 04:30 UTC.
Position N 25°41' W 080°02'.

Length 100 m; draft 5.2 m.

Type: Cargo ship. MMSI: 305289000.

Date/timePositionNaut miles runAvg speedWind from/ knotsBaromVisibWave heightAir tempDewpointWater temp
2016-May-26 20:33N 25°41' W 080°02'1211.7
2016-May-26 19:33N 25°52' W 080°03'1212.4
2016-May-26 18:33N 26°05' W 080°05'2 2.0
2016-May-26 17:30N 26°05' W 080°07'0 0.0
2016-May-26 16:30N 26°05' W 080°07'0 0.0
2016-May-26 15:30N 26°05' W 080°07'0 0.0
2016-May-26 14:33N 26°05' W 080°07'0 0.0
2016-May-26 13:33N 26°05' W 080°07'0 0.0
2016-May-26 12:33N 26°05' W 080°07'0 0.0
2016-May-26 11:33N 26°05' W 080°07'0 0.0
2016-May-26 10:33N 26°05' W 080°07'0 0.0
2016-May-26 09:33N 26°05' W 080°07'0 0.0
2016-May-26 08:33N 26°05' W 080°07'0 0.0
2016-May-26 07:33N 26°05' W 080°07'0 0.0
2016-May-26 06:33N 26°05' W 080°07'0 0.0
2016-May-26 05:33N 26°05' W 080°07'0 0.0
2016-May-26 04:33N 26°05' W 080°07'0 0.0
2016-May-26 03:33N 26°05' W 080°07'0 0.0
2016-May-26 02:23N 26°05' W 080°07'0 0.0
2016-May-26 01:23N 26°05' W 080°07'0 0.0
2016-May-26 00:26N 26°05' W 080°07'0 0.0
2016-May-25 23:26N 26°05' W 080°07'0 0.1
2016-May-25 22:26N 26°05' W 080°07'0 0.0
2016-May-25 21:26N 26°05' W 080°07'0 0.0
2016-May-25 20:26N 26°05' W 080°07'0 0.0
2016-May-25 19:29N 26°05' W 080°07'0 0.0
2016-May-25 18:29N 26°05' W 080°07'0 0.0
2016-May-25 17:29N 26°05' W 080°07'0 0.0
2016-May-25 16:26N 26°05' W 080°07'0 0.0
2016-May-25 15:29N 26°05' W 080°07'0 0.0
2016-May-25 14:32N 26°05' W 080°07'0 0.0
2016-May-25 13:32N 26°05' W 080°07'0 0.0
2016-May-25 12:32N 26°05' W 080°07'0 0.0
2016-May-25 11:29N 26°05' W 080°07'0 0.0
2016-May-25 10:32N 26°05' W 080°07'0 0.0
2016-May-25 09:32N 26°05' W 080°07'0 0.0
2016-May-25 08:32N 26°05' W 080°07'0 0.0
2016-May-25 07:32N 26°05' W 080°07'0 0.0
2016-May-25 06:32N 26°05' W 080°07'0 0.0
2016-May-25 05:32N 26°05' W 080°07'0 0.0
2016-May-25 04:32N 26°05' W 080°07'0 0.0
2016-May-25 03:32N 26°05' W 080°07'0 0.0
2016-May-25 02:32N 26°05' W 080°07'0 0.0
2016-May-25 01:20N 26°05' W 080°07'0 0.0
2016-May-25 00:23N 26°05' W 080°07'2 2.8
2016-May-24 23:33N 26°05' W 080°05'6 5.5
2016-May-24 22:33N 26°05' W 079°59'8 8.0
2016-May-24 21:33N 25°57' W 079°59'1211.9
2016-May-24 20:33N 25°46' W 080°05'4 0.5
2016-May-24 11:33N 25°46' W 080°10'0 0.1
2016-May-24 10:33N 25°46' W 080°10'9 8.9
2016-May-24 09:33N 25°44' W 080°00'  
2016-May-19 22:07N 25°29' W 080°01'610.9
2016-May-19 21:32N 25°35' W 080°01'1110.9
2016-May-19 20:34N 25°46' W 080°02'1212.3
2016-May-19 19:34N 25°58' W 080°04'8 7.3
2016-May-19 18:29N 26°05' W 080°07'0 0.0
2016-May-19 17:29N 26°05' W 080°07'0 0.0
2016-May-19 16:32N 26°05' W 080°07'0 0.0
2016-May-19 15:32N 26°05' W 080°07'0 0.0
2016-May-19 14:32N 26°05' W 080°07'0 0.0
2016-May-19 13:32N 26°05' W 080°07'0 0.0
2016-May-19 12:32N 26°05' W 080°07'0 0.0
2016-May-19 11:32N 26°05' W 080°07'0 0.0
2016-May-19 10:32N 26°05' W 080°07'0 0.0
2016-May-19 09:32N 26°05' W 080°07'0 0.0
2016-May-19 08:32N 26°05' W 080°07'0 0.0
2016-May-19 07:32N 26°05' W 080°07'0 0.0
2016-May-19 06:32N 26°05' W 080°07'0 0.0
2016-May-19 05:32N 26°05' W 080°07'0 0.0
2016-May-19 04:32N 26°05' W 080°07'0 0.0
2016-May-19 03:23N 26°05' W 080°07'0 0.0
2016-May-19 02:23N 26°05' W 080°07'0 0.0
2016-May-19 01:26N 26°05' W 080°07'0 0.0
2016-May-19 00:26N 26°05' W 080°07'0 0.0
2016-May-18 23:26N 26°05' W 080°07'0 0.0
2016-May-18 22:25N 26°05' W 080°07'0 0.1
2016-May-18 21:25N 26°05' W 080°07'0 0.0
2016-May-18 20:28N 26°05' W 080°07'0 0.0
2016-May-18 19:28N 26°05' W 080°07'0 0.0
2016-May-18 18:28N 26°05' W 080°07'0 0.0
2016-May-18 17:28N 26°05' W 080°07'0 0.0
2016-May-18 16:28N 26°05' W 080°07'0 0.0
2016-May-18 15:31N 26°05' W 080°07'0 0.1
2016-May-18 14:31N 26°05' W 080°07'0 0.0
2016-May-18 13:31N 26°05' W 080°07'0 0.0
2016-May-18 12:31N 26°05' W 080°07'0 0.0
2016-May-18 11:31N 26°05' W 080°07'0 0.0
2016-May-18 10:31N 26°05' W 080°07'0 0.0
2016-May-18 09:28N 26°05' W 080°07'0 0.0
2016-May-18 08:31N 26°05' W 080°07'0 0.0
2016-May-18 07:31N 26°05' W 080°07'0 0.0
2016-May-18 06:31N 26°05' W 080°07'0 0.0
2016-May-18 05:31N 26°05' W 080°07'0 0.0
2016-May-18 04:31N 26°05' W 080°07'0 0.0
2016-May-18 03:31N 26°05' W 080°07'0 0.0
2016-May-18 02:19N 26°05' W 080°07'0 0.0
2016-May-18 01:22N 26°05' W 080°07'0 0.0
2016-May-18 00:22N 26°05' W 080°07'1 0.7
2016-May-17 23:33N 26°06' W 080°07'9 8.6
2016-May-17 22:33N 26°09' W 079°58'1413.8
2016-May-17 21:33N 25°56' W 079°59'14 9.4
2016-May-17 20:06N 25°46' W 080°10'1 0.1
2016-May-17 10:27N 25°46' W 080°09'8 8.5
2016-May-17 09:33N 25°44' W 080°01'  
Track history (hours):
 
Tides and Currents Weather Stations Pressure Air Temp Water Temp Dewpoint Dewpoint Depression Visibility Wind Speed Wind Dir Waves Ship Positions

Caribe Navigator

Last reported at 2016-May-26 20:33 UTC. Time now 2016-May-27 04:30 UTC.
Position N 25°41' W 080°02'.

Length 100 m; draft 5.2 m.

Type: Cargo ship. MMSI: 305289000.

Date/timePositionNaut miles runAvg speedWind from/ knotsBaromVisibWave heightAir tempDewpointWater temp
2016-May-26 20:33N 25°41' W 080°02'1211.7
2016-May-26 19:33N 25°52' W 080°03'1212.4
2016-May-26 18:33N 26°05' W 080°05'2 2.0
2016-May-26 17:30N 26°05' W 080°07'0 0.0
2016-May-26 16:30N 26°05' W 080°07'0 0.0
2016-May-26 15:30N 26°05' W 080°07'0 0.0
2016-May-26 14:33N 26°05' W 080°07'0 0.0
2016-May-26 13:33N 26°05' W 080°07'0 0.0
2016-May-26 12:33N 26°05' W 080°07'0 0.0
2016-May-26 11:33N 26°05' W 080°07'0 0.0
2016-May-26 10:33N 26°05' W 080°07'0 0.0
2016-May-26 09:33N 26°05' W 080°07'0 0.0
2016-May-26 08:33N 26°05' W 080°07'0 0.0
2016-May-26 07:33N 26°05' W 080°07'0 0.0
2016-May-26 06:33N 26°05' W 080°07'0 0.0
2016-May-26 05:33N 26°05' W 080°07'0 0.0
2016-May-26 04:33N 26°05' W 080°07'0 0.0
2016-May-26 03:33N 26°05' W 080°07'0 0.0
2016-May-26 02:23N 26°05' W 080°07'0 0.0
2016-May-26 01:23N 26°05' W 080°07'0 0.0
2016-May-26 00:26N 26°05' W 080°07'0 0.0
2016-May-25 23:26N 26°05' W 080°07'0 0.1
2016-May-25 22:26N 26°05' W 080°07'0 0.0
2016-May-25 21:26N 26°05' W 080°07'0 0.0
2016-May-25 20:26N 26°05' W 080°07'0 0.0
2016-May-25 19:29N 26°05' W 080°07'0 0.0
2016-May-25 18:29N 26°05' W 080°07'0 0.0
2016-May-25 17:29N 26°05' W 080°07'0 0.0
2016-May-25 16:26N 26°05' W 080°07'0 0.0
2016-May-25 15:29N 26°05' W 080°07'0 0.0
2016-May-25 14:32N 26°05' W 080°07'0 0.0
2016-May-25 13:32N 26°05' W 080°07'0 0.0
2016-May-25 12:32N 26°05' W 080°07'0 0.0
2016-May-25 11:29N 26°05' W 080°07'0 0.0
2016-May-25 10:32N 26°05' W 080°07'0 0.0
2016-May-25 09:32N 26°05' W 080°07'0 0.0
2016-May-25 08:32N 26°05' W 080°07'0 0.0
2016-May-25 07:32N 26°05' W 080°07'0 0.0
2016-May-25 06:32N 26°05' W 080°07'0 0.0
2016-May-25 05:32N 26°05' W 080°07'0 0.0
2016-May-25 04:32N 26°05' W 080°07'0 0.0
2016-May-25 03:32N 26°05' W 080°07'0 0.0
2016-May-25 02:32N 26°05' W 080°07'0 0.0
2016-May-25 01:20N 26°05' W 080°07'0 0.0
2016-May-25 00:23N 26°05' W 080°07'2 2.8
2016-May-24 23:33N 26°05' W 080°05'6 5.5
2016-May-24 22:33N 26°05' W 079°59'8 8.0
2016-May-24 21:33N 25°57' W 079°59'1211.9
2016-May-24 20:33N 25°46' W 080°05'4 0.5
2016-May-24 11:33N 25°46' W 080°10'0 0.1
2016-May-24 10:33N 25°46' W 080°10'9 8.9
2016-May-24 09:33N 25°44' W 080°00'  
2016-May-19 22:07N 25°29' W 080°01'610.9
2016-May-19 21:32N 25°35' W 080°01'1110.9
2016-May-19 20:34N 25°46' W 080°02'1212.3
2016-May-19 19:34N 25°58' W 080°04'8 7.3
2016-May-19 18:29N 26°05' W 080°07'0 0.0
2016-May-19 17:29N 26°05' W 080°07'0 0.0
2016-May-19 16:32N 26°05' W 080°07'0 0.0
2016-May-19 15:32N 26°05' W 080°07'0 0.0
2016-May-19 14:32N 26°05' W 080°07'0 0.0
2016-May-19 13:32N 26°05' W 080°07'0 0.0
2016-May-19 12:32N 26°05' W 080°07'0 0.0
2016-May-19 11:32N 26°05' W 080°07'0 0.0
2016-May-19 10:32N 26°05' W 080°07'0 0.0
2016-May-19 09:32N 26°05' W 080°07'0 0.0
2016-May-19 08:32N 26°05' W 080°07'0 0.0
2016-May-19 07:32N 26°05' W 080°07'0 0.0
2016-May-19 06:32N 26°05' W 080°07'0 0.0
2016-May-19 05:32N 26°05' W 080°07'0 0.0
2016-May-19 04:32N 26°05' W 080°07'0 0.0
2016-May-19 03:23N 26°05' W 080°07'0 0.0
2016-May-19 02:23N 26°05' W 080°07'0 0.0
2016-May-19 01:26N 26°05' W 080°07'0 0.0
2016-May-19 00:26N 26°05' W 080°07'0 0.0
2016-May-18 23:26N 26°05' W 080°07'0 0.0
2016-May-18 22:25N 26°05' W 080°07'0 0.1
2016-May-18 21:25N 26°05' W 080°07'0 0.0
2016-May-18 20:28N 26°05' W 080°07'0 0.0
2016-May-18 19:28N 26°05' W 080°07'0 0.0
2016-May-18 18:28N 26°05' W 080°07'0 0.0
2016-May-18 17:28N 26°05' W 080°07'0 0.0
2016-May-18 16:28N 26°05' W 080°07'0 0.0
2016-May-18 15:31N 26°05' W 080°07'0 0.1
2016-May-18 14:31N 26°05' W 080°07'0 0.0
2016-May-18 13:31N 26°05' W 080°07'0 0.0
2016-May-18 12:31N 26°05' W 080°07'0 0.0
2016-May-18 11:31N 26°05' W 080°07'0 0.0
2016-May-18 10:31N 26°05' W 080°07'0 0.0
2016-May-18 09:28N 26°05' W 080°07'0 0.0
2016-May-18 08:31N 26°05' W 080°07'0 0.0
2016-May-18 07:31N 26°05' W 080°07'0 0.0
2016-May-18 06:31N 26°05' W 080°07'0 0.0
2016-May-18 05:31N 26°05' W 080°07'0 0.0
2016-May-18 04:31N 26°05' W 080°07'0 0.0
2016-May-18 03:31N 26°05' W 080°07'0 0.0
2016-May-18 02:19N 26°05' W 080°07'0 0.0
2016-May-18 01:22N 26°05' W 080°07'0 0.0
2016-May-18 00:22N 26°05' W 080°07'1 0.7
2016-May-17 23:33N 26°06' W 080°07'9 8.6
2016-May-17 22:33N 26°09' W 079°58'1413.8
2016-May-17 21:33N 25°56' W 079°59'14 9.4
2016-May-17 20:06N 25°46' W 080°10'1 0.1
2016-May-17 10:27N 25°46' W 080°09'8 8.5
2016-May-17 09:33N 25°44' W 080°01'  

Dump ship's entire track history